Flight Information

DEPARTURE
HALF MOON BAY, CA
Elevation:
66
Runways:
12/30 - 5000x150 - ASPH-CONC-F
CTAF:
122.800
DESTINATION
MONTEREY, CA
Elevation:
256
TPA:
1756 (1500)
Runways:
10R/28L - 7175x150 - ASPH-G
10L/28R - 3503x60 - ASPH-F
ATIS:
119.25 831-375-7433
Tower:
MONTEREY TOWER 118.4
Ground:
120.875


63.9 NM150° True-15° Var135° HDG

Flight Plan:
(click to file on line)

1. Type
2. Aircraft Identification
3. Aircraft Type / Special Equipment
4. True Airspeed
kts
5. Departure Airport
(ICAO code)
6. Arriving Airport
(ICAO code)
7. Cruising Altitude
ft
8. Alternate Airport
(ICAO code)
9. Route of Flight
10. Remarks


00:00:00 Departure ATIS: Destination ATIS:

Clearance Limit:
Route:
Altitude: Expect in minutes
Frequency:
Transponder: (7500 Hijack / 7600 Lost Comms / 7700 Emergency)


KHAF 261355Z AUTO 00000KT 2 1/2SM BR OVC003 12/11 A3003 RMK AO2
Time: 2022-06-26T13:55:00Z
1656252042
Winds: calm
Visibility: 2.5 sm
Clouds (AGL): OVC 300
Temperature: 12.0 C
Dew Point: 11.0 C
Pressure: 30.029528 in Hgbr

KMRY 261354Z 00000KT 2SM BR OVC001 12/11 A3003 RMK AO2 SLP181 T01220106
Time: 2022-06-26T13:54:00Z
1656252042
Winds: calm
Visibility: 2.0 sm
Clouds (AGL): OVC 100
Temperature: 12.2 C
Dew Point: 10.6 C
Pressure: 30.029528 in Hgbr


Notes:

Data extracted from FAA Digital Chart Supplement. Effective: 0901Z Thursday, 27 JAN 2022 to 0900z Thursday, 24 MAR 2022
Current ATIS data is provided courtisy of PilotEdge.